createdAt,value
2023-01-29T00:01:44.831Z,40.03
2023-01-29T00:04:11.250Z,37.42
2023-01-29T00:06:37.837Z,43.67
2023-01-29T00:09:04.257Z,43.38
2023-01-29T00:11:31.946Z,47.72
2023-01-29T00:13:58.709Z,47.20
2023-01-29T00:16:25.111Z,44.35
2023-01-29T00:18:51.513Z,49.30
2023-01-29T00:21:20.088Z,51.05
2023-01-29T00:23:47.063Z,52.28
2023-01-29T00:26:14.326Z,54.28
2023-01-29T00:28:44.137Z,46.65
2023-01-29T00:31:16.923Z,46.55
2023-01-29T00:33:43.685Z,46.85
2023-01-29T00:36:12.872Z,45.42
2023-01-29T00:38:39.671Z,51.78
2023-01-29T00:41:33.524Z,45.15
2023-01-29T00:44:19.867Z,39.88
2023-01-29T00:46:46.481Z,52.90
2023-01-29T00:49:12.959Z,44.55
2023-01-29T00:51:39.527Z,36.10
2023-01-29T00:54:09.502Z,40.33
2023-01-29T00:56:37.318Z,40.00
2023-01-29T00:59:04.521Z,41.92
2023-01-29T01:01:50.140Z,48.33
2023-01-29T01:04:16.622Z,35.15
2023-01-29T01:06:43.563Z,43.28
2023-01-29T01:09:29.213Z,41.55
2023-01-29T01:11:55.591Z,36.00
2023-01-29T01:14:22.363Z,34.13
2023-01-29T01:16:49.557Z,35.42
2023-01-29T01:19:16.351Z,37.28
2023-01-29T01:21:48.063Z,37.28
2023-01-29T01:24:14.988Z,31.92
2023-01-29T01:26:41.435Z,38.72
2023-01-29T01:29:07.845Z,38.75
2023-01-29T01:31:34.265Z,35.17
2023-01-29T01:34:00.858Z,38.10
2023-01-29T01:36:27.327Z,32.50
2023-01-29T01:38:54.785Z,34.00
2023-01-29T01:41:22.968Z,32.75
2023-01-29T01:43:53.949Z,32.05
2023-01-29T01:46:21.872Z,30.92
2023-01-29T01:48:55.901Z,34.00
2023-01-29T01:51:25.550Z,30.33
2023-01-29T01:54:14.115Z,30.83
2023-01-29T01:56:46.721Z,35.80
2023-01-29T01:59:15.949Z,34.15
2023-01-29T02:01:50.011Z,32.58
2023-01-29T02:04:44.273Z,35.45
2023-01-29T02:07:35.879Z,31.63
2023-01-29T02:10:16.703Z,38.00
2023-01-29T02:12:45.605Z,34.03
2023-01-29T02:15:13.184Z,33.22
2023-01-29T02:17:39.713Z,30.25
2023-01-29T02:20:18.481Z,36.85
2023-01-29T02:23:03.816Z,39.13
2023-01-29T02:26:10.381Z,28.95
2023-01-29T02:28:48.922Z,34.95
2023-01-29T02:31:31.437Z,28.33
2023-01-29T02:34:16.979Z,27.35
2023-01-29T02:36:50.423Z,40.20
2023-01-29T02:39:20.675Z,27.08
2023-01-29T02:42:00.718Z,33.05
2023-01-29T02:44:42.187Z,29.25
2023-01-29T02:47:20.180Z,32.70
2023-01-29T02:50:02.047Z,29.13
2023-01-29T02:52:52.697Z,36.65
2023-01-29T02:55:45.936Z,33.88
2023-01-29T02:58:33.026Z,37.40
2023-01-29T03:01:23.430Z,41.13
2023-01-29T03:03:55.064Z,32.33
2023-01-29T03:06:28.201Z,35.08
2023-01-29T03:09:07.819Z,41.90
2023-01-29T03:11:41.367Z,34.88
2023-01-29T03:14:18.845Z,32.70
2023-01-29T03:16:53.532Z,36.50
2023-01-29T03:19:34.410Z,37.08
2023-01-29T03:22:08.495Z,33.65
2023-01-29T03:25:03.308Z,44.85
2023-01-29T03:28:00.299Z,36.88
2023-01-29T03:30:57.837Z,36.67
2023-01-29T03:33:58.501Z,35.85
2023-01-29T03:36:45.827Z,35.95
2023-01-29T03:39:15.337Z,32.33
2023-01-29T03:41:53.612Z,33.05
2023-01-29T03:44:43.143Z,36.22
2023-01-29T03:47:54.066Z,33.28
2023-01-29T03:50:38.217Z,30.85
2023-01-29T03:53:19.543Z,27.90
2023-01-29T03:56:02.009Z,29.52
2023-01-29T03:58:39.590Z,31.88
2023-01-29T04:01:37.916Z,25.95
2023-01-29T04:04:27.926Z,29.67
2023-01-29T04:07:00.630Z,28.73
2023-01-29T04:09:43.653Z,32.78
2023-01-29T04:12:13.806Z,32.40
2023-01-29T04:14:42.580Z,27.58
2023-01-29T04:17:16.939Z,31.27
2023-01-29T04:19:50.189Z,28.48
2023-01-29T04:22:24.123Z,33.15
2023-01-29T04:24:51.252Z,31.05
2023-01-29T04:27:41.226Z,33.75
2023-01-29T04:30:20.165Z,27.58
2023-01-29T04:33:03.162Z,30.23
2023-01-29T04:35:41.194Z,31.60
2023-01-29T04:38:35.475Z,26.83
2023-01-29T04:41:19.134Z,32.53
2023-01-29T04:43:49.224Z,32.90
2023-01-29T04:46:21.427Z,32.65
2023-01-29T04:49:05.253Z,25.10
2023-01-29T04:51:43.401Z,25.67
2023-01-29T04:54:19.617Z,27.85
2023-01-29T04:56:56.759Z,31.80
2023-01-29T04:59:33.581Z,25.63
2023-01-29T05:02:02.434Z,25.33
2023-01-29T05:04:32.592Z,28.88
2023-01-29T05:07:04.175Z,31.83
2023-01-29T05:09:32.232Z,31.63
2023-01-29T05:12:00.286Z,29.60
2023-01-29T05:14:30.387Z,32.25
2023-01-29T05:16:59.919Z,30.77
2023-01-29T05:19:26.951Z,34.00
2023-01-29T05:21:54.104Z,30.33
2023-01-29T05:24:23.493Z,34.75
2023-01-29T05:27:11.083Z,35.72
2023-01-29T05:29:38.360Z,36.40
2023-01-29T05:32:04.938Z,32.15
2023-01-29T05:34:31.373Z,33.65
2023-01-29T05:36:57.805Z,35.45
2023-01-29T05:39:24.219Z,35.65
2023-01-29T05:41:50.680Z,38.47
2023-01-29T05:44:17.103Z,39.58
2023-01-29T05:46:44.015Z,36.83
2023-01-29T05:49:10.587Z,38.50
2023-01-29T05:51:37.015Z,38.38
2023-01-29T05:54:03.575Z,34.53
2023-01-29T05:56:29.997Z,35.85
2023-01-29T05:58:56.451Z,34.75
2023-01-29T06:01:25.310Z,32.58
2023-01-29T06:03:51.816Z,41.85
2023-01-29T06:06:18.192Z,40.10
2023-01-29T06:08:44.672Z,37.03
2023-01-29T06:11:12.987Z,38.90
2023-01-29T06:13:39.499Z,42.05
2023-01-29T06:16:10.003Z,33.20
2023-01-29T06:18:37.180Z,36.45
2023-01-29T06:21:05.624Z,36.03
2023-01-29T06:23:32.192Z,36.22
2023-01-29T06:26:03.295Z,32.47
2023-01-29T06:28:29.711Z,33.17
2023-01-29T06:31:20.953Z,31.75
2023-01-29T06:33:47.766Z,32.40
2023-01-29T06:36:14.134Z,31.80
2023-01-29T06:38:40.852Z,31.20
2023-01-29T06:41:12.413Z,36.20
2023-01-29T06:43:39.547Z,34.78
2023-01-29T06:46:08.118Z,27.58
2023-01-29T06:48:35.191Z,30.90
2023-01-29T06:51:06.864Z,29.48
2023-01-29T06:53:34.651Z,28.52
2023-01-29T06:56:01.108Z,33.42
2023-01-29T06:58:27.473Z,30.55
2023-01-29T07:00:53.960Z,29.52
2023-01-29T07:03:20.406Z,33.42
2023-01-29T07:05:53.781Z,30.10
2023-01-29T07:08:22.593Z,30.77
2023-01-29T07:10:50.434Z,28.75
2023-01-29T07:13:17.253Z,38.58
2023-01-29T07:15:44.443Z,28.83
2023-01-29T07:18:13.700Z,26.75
2023-01-29T07:20:41.247Z,26.75
2023-01-29T07:23:11.996Z,27.40
2023-01-29T07:25:39.456Z,26.98
2023-01-29T07:28:06.785Z,27.95
2023-01-29T07:30:33.649Z,31.15
2023-01-29T07:33:08.116Z,30.95
2023-01-29T07:35:39.484Z,26.67
2023-01-29T07:38:06.815Z,30.20
2023-01-29T07:40:33.607Z,36.63
2023-01-29T07:43:01.080Z,31.08
2023-01-29T07:45:28.698Z,34.13
2023-01-29T07:47:56.173Z,34.97
2023-01-29T07:50:24.176Z,34.90
2023-01-29T07:52:50.957Z,32.80
2023-01-29T07:55:18.300Z,35.17
2023-01-29T07:57:44.750Z,38.53
2023-01-29T08:00:12.063Z,36.88
2023-01-29T08:02:42.497Z,39.13
2023-01-29T08:05:09.155Z,38.33
2023-01-29T08:07:35.534Z,39.97
2023-01-29T08:10:02.156Z,39.05
2023-01-29T08:12:28.514Z,37.80
2023-01-29T08:14:55.043Z,35.88
2023-01-29T08:17:21.410Z,39.65
2023-01-29T08:19:47.893Z,44.55
2023-01-29T08:22:16.470Z,41.65
2023-01-29T08:24:53.721Z,39.88
2023-01-29T08:27:26.513Z,42.72
2023-01-29T08:29:53.027Z,54.42
2023-01-29T08:32:19.408Z,51.10
2023-01-29T08:34:46.005Z,50.85
2023-01-29T08:37:12.374Z,46.72
2023-01-29T08:39:38.808Z,42.53
2023-01-29T08:42:05.284Z,51.13
2023-01-29T08:44:31.667Z,52.97
2023-01-29T08:46:58.147Z,50.03
2023-01-29T08:49:24.556Z,51.90
2023-01-29T08:51:54.662Z,50.50
2023-01-29T08:54:21.127Z,56.30
2023-01-29T08:56:47.508Z,55.38
2023-01-29T08:59:14.205Z,50.47
2023-01-29T09:01:40.757Z,54.20
2023-01-29T09:04:07.500Z,60.35
2023-01-29T09:06:34.005Z,61.05
2023-01-29T09:09:00.615Z,67.05
2023-01-29T09:11:27.084Z,66.20
2023-01-29T09:13:53.535Z,62.17
2023-01-29T09:16:20.250Z,69.10
2023-01-29T09:18:46.664Z,73.45
2023-01-29T09:21:13.145Z,67.95
2023-01-29T09:23:39.636Z,72.00
2023-01-29T09:26:08.127Z,71.68
2023-01-29T09:28:34.563Z,71.00
2023-01-29T09:31:02.913Z,84.00
2023-01-29T09:33:30.920Z,81.68
2023-01-29T09:35:57.370Z,80.97
2023-01-29T09:38:23.765Z,84.80
2023-01-29T09:41:05.518Z,80.15
2023-01-29T09:43:56.404Z,79.07
2023-01-29T09:46:38.351Z,83.38
2023-01-29T09:49:18.762Z,83.22
2023-01-29T09:51:50.779Z,79.85
2023-01-29T09:54:54.845Z,80.95
2023-01-29T09:57:33.144Z,81.20
2023-01-29T09:59:59.646Z,86.60
2023-01-29T10:02:50.525Z,80.88
2023-01-29T10:05:34.743Z,105.25
2023-01-29T10:08:17.662Z,100.63
2023-01-29T10:10:50.552Z,94.75
2023-01-29T10:13:32.762Z,100.78
2023-01-29T10:16:17.048Z,96.60
2023-01-29T10:19:04.449Z,89.97
2023-01-29T10:21:56.180Z,103.03
2023-01-29T10:24:41.641Z,100.03
2023-01-29T10:27:16.494Z,100.65
2023-01-29T10:29:44.637Z,108.30
2023-01-29T10:32:19.824Z,104.15
2023-01-29T10:34:59.847Z,107.25
2023-01-29T10:37:34.784Z,114.57
2023-01-29T10:40:02.160Z,102.28
2023-01-29T10:42:50.557Z,91.22
2023-01-29T10:45:38.616Z,96.70
2023-01-29T10:48:33.923Z,98.40
2023-01-29T10:51:20.982Z,95.47
2023-01-29T10:54:15.991Z,89.80
2023-01-29T10:56:51.344Z,89.63
2023-01-29T10:59:43.520Z,91.55
2023-01-29T11:02:19.499Z,88.75
2023-01-29T11:04:46.245Z,83.20
2023-01-29T11:07:15.053Z,89.70
2023-01-29T11:09:54.977Z,83.97
2023-01-29T11:12:27.199Z,80.93
2023-01-29T11:15:05.034Z,81.45
2023-01-29T11:17:31.468Z,75.55
2023-01-29T11:19:57.816Z,69.47
2023-01-29T11:22:29.703Z,78.10
2023-01-29T11:25:20.028Z,69.90
2023-01-29T11:27:52.967Z,71.32
2023-01-29T11:30:30.430Z,73.18
2023-01-29T11:33:12.568Z,64.68
2023-01-29T11:35:38.979Z,65.07
2023-01-29T11:38:27.766Z,63.15
2023-01-29T11:41:06.084Z,65.32
2023-01-29T11:43:33.489Z,59.80
2023-01-29T11:46:05.220Z,62.70
2023-01-29T11:48:45.580Z,60.45
2023-01-29T11:51:22.399Z,62.53
2023-01-29T11:53:56.554Z,56.80
2023-01-29T11:56:34.005Z,62.20
2023-01-29T11:59:04.403Z,55.28
2023-01-29T12:01:36.188Z,61.25
2023-01-29T12:04:04.203Z,54.97
2023-01-29T12:06:47.657Z,58.50
2023-01-29T12:09:21.366Z,53.13
2023-01-29T12:11:48.136Z,55.67
2023-01-29T12:14:34.041Z,56.40
2023-01-29T12:17:15.229Z,58.92
2023-01-29T12:19:58.465Z,57.00
2023-01-29T12:22:53.673Z,54.70
2023-01-29T12:25:36.632Z,58.80
2023-01-29T12:28:19.798Z,56.03
2023-01-29T12:31:13.478Z,60.92
2023-01-29T12:34:06.322Z,55.53
2023-01-29T12:36:53.144Z,65.93
2023-01-29T12:39:20.297Z,63.45
2023-01-29T12:41:54.702Z,61.00
2023-01-29T12:44:29.013Z,61.80
2023-01-29T12:47:00.323Z,57.75
2023-01-29T12:49:32.558Z,64.95
2023-01-29T12:52:03.297Z,62.47
2023-01-29T12:54:49.983Z,54.72
2023-01-29T12:57:34.438Z,56.22
2023-01-29T13:00:16.785Z,52.88
2023-01-29T13:03:06.715Z,55.17
2023-01-29T13:05:39.158Z,55.08
2023-01-29T13:08:23.790Z,51.40
2023-01-29T13:10:52.768Z,59.17
2023-01-29T13:13:31.610Z,47.38
2023-01-29T13:16:00.973Z,51.05
2023-01-29T13:18:43.614Z,53.03
2023-01-29T13:21:24.354Z,55.78
2023-01-29T13:24:03.262Z,51.35
2023-01-29T13:26:30.796Z,50.15
2023-01-29T13:28:58.024Z,49.40
2023-01-29T13:31:30.001Z,52.15
2023-01-29T13:34:07.572Z,51.70
2023-01-29T13:36:36.380Z,53.15
2023-01-29T13:39:10.162Z,49.53
2023-01-29T13:41:42.392Z,47.58
2023-01-29T13:44:21.980Z,51.85
2023-01-29T13:46:53.459Z,48.38
2023-01-29T13:49:40.202Z,50.33
2023-01-29T13:52:39.626Z,50.78
2023-01-29T13:55:15.305Z,47.95
2023-01-29T13:57:44.687Z,50.03
2023-01-29T14:00:30.807Z,51.85
2023-01-29T14:03:00.218Z,62.22
2023-01-29T14:05:29.639Z,64.82
2023-01-29T14:08:03.451Z,60.13
2023-01-29T14:10:32.158Z,57.97
2023-01-29T14:13:04.536Z,74.28
2023-01-29T14:15:32.486Z,60.75
2023-01-29T14:18:19.402Z,74.28
2023-01-29T14:20:51.527Z,66.68
2023-01-29T14:23:28.402Z,67.07
2023-01-29T14:25:55.491Z,56.58
2023-01-29T14:28:28.816Z,60.30
2023-01-29T14:30:55.774Z,58.78
2023-01-29T14:33:27.708Z,63.13
2023-01-29T14:35:56.812Z,61.55
2023-01-29T14:38:25.414Z,66.00
2023-01-29T14:41:04.356Z,62.80
2023-01-29T14:43:30.733Z,58.40
2023-01-29T14:46:35.346Z,54.13
2023-01-29T14:49:02.495Z,62.28
2023-01-29T14:51:36.584Z,51.42
2023-01-29T14:54:14.551Z,59.75
2023-01-29T14:56:50.969Z,55.75
2023-01-29T14:59:28.989Z,59.63
2023-01-29T15:01:58.173Z,57.15
2023-01-29T15:04:33.429Z,60.95
2023-01-29T15:07:05.698Z,58.47
2023-01-29T15:10:07.893Z,66.07
2023-01-29T15:12:50.487Z,66.20
2023-01-29T15:15:26.590Z,64.82
2023-01-29T15:18:02.177Z,68.53
2023-01-29T15:20:37.308Z,62.75
2023-01-29T15:23:04.989Z,63.53
2023-01-29T15:25:36.763Z,63.08
2023-01-29T15:28:08.529Z,62.85
2023-01-29T15:30:36.047Z,62.75
2023-01-29T15:33:03.408Z,72.15
2023-01-29T15:35:31.144Z,67.10
2023-01-29T15:38:17.147Z,67.25
2023-01-29T15:41:04.524Z,67.95
2023-01-29T15:43:36.551Z,72.72
2023-01-29T15:46:09.736Z,71.00
2023-01-29T15:48:43.442Z,74.03
2023-01-29T15:51:31.337Z,69.22
2023-01-29T15:54:02.510Z,74.88
2023-01-29T15:56:48.013Z,70.45
2023-01-29T15:59:34.525Z,65.28
2023-01-29T16:02:42.477Z,60.22
2023-01-29T16:05:22.881Z,59.22
2023-01-29T16:07:50.945Z,66.05
2023-01-29T16:10:24.399Z,65.22
2023-01-29T16:12:52.203Z,60.60
2023-01-29T16:15:29.908Z,64.22
2023-01-29T16:17:57.348Z,66.85
2023-01-29T16:20:34.895Z,59.22
2023-01-29T16:23:01.308Z,60.70
2023-01-29T16:25:30.156Z,83.97
2023-01-29T16:27:57.580Z,55.55
2023-01-29T16:30:28.499Z,90.45
2023-01-29T16:33:01.936Z,77.13
2023-01-29T16:35:28.533Z,66.93
2023-01-29T16:38:02.865Z,64.65
2023-01-29T16:40:35.366Z,65.80
2023-01-29T16:43:16.920Z,60.60
2023-01-29T16:45:43.370Z,55.08
2023-01-29T16:48:32.811Z,68.82
2023-01-29T16:51:51.680Z,75.95
2023-01-29T16:54:23.770Z,113.68
2023-01-29T16:56:54.356Z,79.93
2023-01-29T16:59:27.612Z,58.20
2023-01-29T17:01:55.930Z,73.80
2023-01-29T17:04:22.589Z,58.10
2023-01-29T17:06:54.893Z,57.50
2023-01-29T17:09:28.990Z,56.83
2023-01-29T17:11:58.813Z,57.80
2023-01-29T17:14:26.281Z,60.78
2023-01-29T17:17:03.018Z,56.75
2023-01-29T17:19:30.112Z,55.25
2023-01-29T17:21:58.918Z,57.55
2023-01-29T17:24:25.852Z,57.03
2023-01-29T17:26:54.029Z,51.88
2023-01-29T17:29:28.369Z,56.60
2023-01-29T17:31:56.089Z,50.72
2023-01-29T17:34:23.909Z,51.42
2023-01-29T17:36:50.360Z,48.22
2023-01-29T17:39:22.124Z,48.88
2023-01-29T17:41:57.656Z,47.10
2023-01-29T17:44:27.596Z,51.55
2023-01-29T17:46:54.365Z,49.03
2023-01-29T17:49:25.567Z,51.75
2023-01-29T17:51:53.340Z,52.80
2023-01-29T17:54:20.088Z,61.75
2023-01-29T17:56:46.942Z,61.35
2023-01-29T17:59:19.739Z,62.35
2023-01-29T18:01:47.449Z,73.57
2023-01-29T18:04:14.585Z,65.88
2023-01-29T18:06:42.475Z,67.35
2023-01-29T18:09:13.792Z,66.13
2023-01-29T18:11:41.327Z,60.60
2023-01-29T18:14:13.975Z,60.58
2023-01-29T18:16:42.059Z,58.75
2023-01-29T18:19:20.841Z,56.70
2023-01-29T18:21:48.097Z,58.88
2023-01-29T18:24:14.768Z,56.33
2023-01-29T18:26:41.269Z,53.75
2023-01-29T18:29:08.136Z,52.65
2023-01-29T18:31:35.381Z,52.42
2023-01-29T18:34:01.799Z,57.75
2023-01-29T18:36:28.219Z,55.20
2023-01-29T18:38:55.008Z,60.97
2023-01-29T18:41:21.773Z,62.72
2023-01-29T18:43:48.189Z,61.22
2023-01-29T18:46:14.851Z,52.83
2023-01-29T18:48:42.789Z,55.78
2023-01-29T18:51:09.472Z,57.20
2023-01-29T18:53:35.839Z,55.40
2023-01-29T18:56:05.029Z,55.45
2023-01-29T18:58:35.697Z,56.17
2023-01-29T19:01:09.300Z,55.28
2023-01-29T19:03:36.336Z,59.22
2023-01-29T19:06:04.246Z,62.75
2023-01-29T19:08:31.324Z,61.17
2023-01-29T19:11:01.961Z,62.00
2023-01-29T19:13:32.152Z,70.10
2023-01-29T19:15:58.864Z,65.22
2023-01-29T19:18:28.024Z,67.88
2023-01-29T19:20:54.914Z,67.30
2023-01-29T19:23:22.000Z,70.22
2023-01-29T19:25:48.374Z,77.85
2023-01-29T19:28:15.160Z,74.35
2023-01-29T19:30:41.695Z,76.50
2023-01-29T19:33:09.352Z,74.05
2023-01-29T19:35:35.821Z,79.07
2023-01-29T19:38:02.223Z,82.97
2023-01-29T19:40:28.607Z,80.28
2023-01-29T19:42:56.066Z,82.82
2023-01-29T19:45:49.032Z,78.45
2023-01-29T19:48:13.363Z,86.45
2023-01-29T19:50:39.855Z,90.07
2023-01-29T19:53:06.338Z,84.45
2023-01-29T19:55:32.730Z,89.20
2023-01-29T19:57:59.428Z,86.57
2023-01-29T20:00:25.868Z,98.60
2023-01-29T20:02:52.320Z,89.97
2023-01-29T20:05:20.284Z,91.47
2023-01-29T20:07:47.007Z,89.75
2023-01-29T20:10:17.310Z,95.57
2023-01-29T20:12:45.170Z,91.82
2023-01-29T20:15:15.155Z,92.30
2023-01-29T20:17:41.852Z,90.65
2023-01-29T20:20:09.143Z,97.47
2023-01-29T20:22:35.654Z,97.07
2023-01-29T20:25:02.161Z,97.03
2023-01-29T20:27:28.617Z,104.70
2023-01-29T20:29:54.960Z,97.53
2023-01-29T20:32:21.632Z,100.95
2023-01-29T20:34:51.854Z,95.72
2023-01-29T20:37:19.239Z,90.35
2023-01-29T20:39:45.633Z,92.57
2023-01-29T20:42:12.011Z,98.13
2023-01-29T20:44:38.373Z,97.97
2023-01-29T20:47:04.767Z,100.07
2023-01-29T20:49:31.662Z,96.80
2023-01-29T20:51:58.101Z,97.65
2023-01-29T20:54:24.502Z,94.13
2023-01-29T20:56:50.856Z,100.43
2023-01-29T20:59:17.916Z,101.07
2023-01-29T21:01:45.017Z,93.40
2023-01-29T21:04:11.527Z,99.72
2023-01-29T21:06:37.902Z,92.85
2023-01-29T21:09:04.472Z,98.88
2023-01-29T21:11:31.537Z,90.03
2023-01-29T21:13:58.138Z,95.40
2023-01-29T21:16:26.102Z,97.68
2023-01-29T21:19:00.060Z,98.40
2023-01-29T21:21:27.625Z,97.57
2023-01-29T21:23:54.694Z,94.85
2023-01-29T21:26:23.063Z,96.35
2023-01-29T21:28:49.553Z,88.65
2023-01-29T21:31:17.434Z,89.68
2023-01-29T21:33:44.680Z,84.65
2023-01-29T21:36:11.627Z,94.80
2023-01-29T21:38:38.768Z,88.15
2023-01-29T21:41:09.089Z,85.05
2023-01-29T21:43:36.031Z,86.78
2023-01-29T21:46:05.004Z,89.55
2023-01-29T21:48:31.898Z,92.10
2023-01-29T21:50:58.242Z,85.18
2023-01-29T21:53:24.734Z,88.65
2023-01-29T21:55:51.703Z,87.78
2023-01-29T21:58:19.900Z,88.97
2023-01-29T22:00:48.658Z,80.78
2023-01-29T22:03:15.205Z,88.97
2023-01-29T22:05:41.632Z,84.13
2023-01-29T22:08:08.071Z,89.28
2023-01-29T22:10:36.443Z,91.38
2023-01-29T22:13:03.584Z,80.95
2023-01-29T22:15:30.126Z,85.70
2023-01-29T22:17:56.482Z,87.07
2023-01-29T22:20:29.890Z,90.47
2023-01-29T22:22:58.759Z,95.78
2023-01-29T22:25:25.301Z,104.82
2023-01-29T22:27:51.668Z,107.18
2023-01-29T22:30:19.038Z,99.55
2023-01-29T22:32:45.571Z,98.07
2023-01-29T22:35:11.987Z,110.70
2023-01-29T22:37:38.385Z,100.82
2023-01-29T22:40:05.330Z,103.35
2023-01-29T22:42:31.842Z,112.57
2023-01-29T22:44:58.334Z,106.88
2023-01-29T22:47:24.827Z,100.85
2023-01-29T22:49:52.412Z,99.68
2023-01-29T22:52:22.489Z,104.03
2023-01-29T22:54:49.077Z,102.30
2023-01-29T22:57:15.613Z,118.75
2023-01-29T22:59:42.027Z,117.40
2023-01-29T23:02:08.892Z,124.05
2023-01-29T23:04:35.491Z,119.35
2023-01-29T23:07:03.041Z,127.18
2023-01-29T23:09:29.453Z,132.02
2023-01-29T23:11:55.826Z,104.78
2023-01-29T23:14:22.269Z,108.70
2023-01-29T23:16:48.633Z,120.85
2023-01-29T23:19:15.027Z,117.70
2023-01-29T23:21:41.413Z,103.22
2023-01-29T23:24:08.603Z,105.78
2023-01-29T23:26:53.578Z,89.95
2023-01-29T23:29:20.307Z,92.93
2023-01-29T23:31:47.142Z,88.88
2023-01-29T23:34:14.152Z,90.95
2023-01-29T23:36:41.005Z,96.18
2023-01-29T23:39:07.641Z,94.32
2023-01-29T23:41:34.219Z,83.80
2023-01-29T23:44:00.769Z,82.85
2023-01-29T23:46:27.173Z,90.07
2023-01-29T23:48:53.681Z,82.63
2023-01-29T23:51:20.177Z,84.50
2023-01-29T23:53:46.522Z,83.47
2023-01-29T23:56:13.250Z,82.20
2023-01-29T23:58:39.676Z,80.53
